Terminal Aerodrome Forecast
Issued by NWS Sioux Falls, SD

Home | Current Version | Previous Version | Graphics & Text | Print | Product List | Glossary On
Versions: 1 2 3 4 5 6 7 8 9 10 11 12
000
FTUS43 KFSD 240520
TAFSUX
TAF
KSUX 240520Z 2406/2506 VRB03KT P6SM SKC
     FM241100 VRB02KT 3SM BR SKC
     FM241400 14008KT P6SM FEW110=

USA.gov is the U.S. government's official web portal to all federal, state and local government web resources and services.